KDBQ/DBQ METAR and TAF weather

Enter ICAO airport designator
Station Type Date Time Source
KDBQ METAR 2020/03/31 08:53 UTC NOAA

KDBQ 310853Z AUTO 06010KT 10SM CLR 03/01 A3009 RMK AO2 SLP194 T00330011 56007


Station Type Date Time Source
KDBQ Decoded METAR 2020/03/31 08:53 UTC NOAA

DUBUQUE REGIONAL AIRPORT, IA, United States (KDBQ) 42-24N 90-42W 326M
Mar 31, 2020 - 04:53 AM EDT / 2020.03.31 0853 UTC
Wind: from the ENE (060 degrees) at 12 MPH (10 KT):0
Visibility: 10 mile(s):0
Sky conditions: clear
Temperature: 37.9 F (3.3 C)
Dew Point: 34.0 F (1.1 C)
Relative Humidity: 85%
Pressure (altimeter): 30.09 in. Hg (1018 hPa)
Pressure tendency: 0.02 inches (0.7 hPa) lower than three hours ago
ob: KDBQ 310853Z AUTO 06010KT 10SM CLR 03/01 A3009 RMK AO2 SLP194 T00330011 56007
cycle: 9

Station Type Date Time Source
KDBQ TAF 2020/03/31 06:36 UTC NOAA

TAF KDBQ 310534Z 3106/0106 04006KT P6SM BKN250
FM311700 04006KT P6SM BKN035
FM312300 04006KT P6SM BKN060

Example: see airport list